Time;durP1;ratioP1;P1;durP2;ratioP2;P2;SDS_P1;SDS_P2;PMS_P1;PMS_P2;Temp;Humidity;BMP_temperature;BMP_pressure;BME280_temperature;BME280_humidity;BME280_pressure;Samples;Min_cycle;Max_cycle;Signal;HPM_P1;HPM_P2
2023/12/11 00:01:35;;;;;;;1.73;1.15;;;;;11.20;97399.00;;;;5037023;28;20076;-64
2023/12/11 00:04:02;;;;;;;2.90;1.20;;;;;11.20;97410.00;;;;5035870;28;20044;-64
2023/12/11 00:06:29;;;;;;;1.80;1.10;;;;;11.20;97419.00;;;;5036195;28;20053;-63
2023/12/11 00:08:58;;;;;;;2.38;0.93;;;;;11.20;97411.00;;;;5036841;28;20120;-64
2023/12/11 00:11:25;;;;;;;1.30;1.20;;;;;11.20;97429.00;;;;5035231;28;20120;-63
2023/12/11 00:13:51;;;;;;;1.92;1.00;;;;;11.20;97433.00;;;;5034668;28;20486;-63
2023/12/11 00:16:18;;;;;;;1.38;1.00;;;;;11.20;97435.00;;;;5036082;28;20483;-63
2023/12/11 00:18:45;;;;;;;1.67;1.00;;;;;11.30;97440.00;;;;5036346;28;20049;-64
2023/12/11 00:21:12;;;;;;;2.10;1.10;;;;;11.30;97440.00;;;;5035855;28;20045;-63
2023/12/11 00:23:39;;;;;;;1.42;1.00;;;;;11.30;97440.00;;;;5035151;28;20045;-64
2023/12/11 00:26:05;;;;;;;1.88;0.95;;;;;11.30;97445.00;;;;5035721;28;20086;-63
2023/12/11 00:28:32;;;;;;;3.92;1.17;;;;;11.30;97437.00;;;;5018109;28;20466;-64
2023/12/11 00:30:59;;;;;;;0.93;0.70;;;;;11.40;97435.00;;;;5036085;28;20479;-64
2023/12/11 00:33:26;;;;;;;1.92;0.80;;;;;11.40;97437.00;;;;5035380;28;20045;-63
2023/12/11 00:35:56;;;;;;;2.28;1.02;;;;;11.40;97435.00;;;;5034237;28;20042;-64
2023/12/11 00:38:22;;;;;;;4.20;1.27;;;;;11.40;97433.00;;;;5035828;28;20045;-63
2023/12/11 00:40:50;;;;;;;1.88;0.95;;;;;11.40;97439.00;;;;5035524;28;20124;-65
2023/12/11 00:43:18;;;;;;;3.83;0.93;;;;;11.50;97443.00;;;;5035468;28;20132;-70
2023/12/11 00:45:44;;;;;;;2.28;1.05;;;;;11.50;97429.00;;;;5034608;28;20052;-64
2023/12/11 00:48:11;;;;;;;3.55;1.00;;;;;11.50;97426.00;;;;5034090;28;20132;-64
2023/12/11 00:50:38;;;;;;;2.47;1.20;;;;;11.50;97435.00;;;;5034791;28;20041;-64
2023/12/11 00:53:04;;;;;;;3.63;1.10;;;;;11.50;97424.00;;;;5034551;28;20044;-64
2023/12/11 00:55:31;;;;;;;2.28;1.00;;;;;11.40;97436.00;;;;5032752;28;20132;-65
2023/12/11 00:57:58;;;;;;;1.63;1.20;;;;;11.40;97428.00;;;;5034581;28;20051;-63
2023/12/11 01:00:24;;;;;;;3.75;1.13;;;;;11.40;97421.00;;;;5034787;28;20401;-64
2023/12/11 01:02:51;;;;;;;1.42;0.80;;;;;11.40;97428.00;;;;5033625;28;20068;-64
2023/12/11 01:05:17;;;;;;;4.07;1.20;;;;;11.30;97413.00;;;;5033903;28;20417;-64
2023/12/11 01:07:44;;;;;;;3.50;1.15;;;;;11.30;97418.00;;;;5034354;28;20136;-65
2023/12/11 01:10:11;;;;;;;2.38;0.95;;;;;11.30;97415.00;;;;5034299;28;20053;-64
2023/12/11 01:12:38;;;;;;;2.20;0.90;;;;;11.20;97417.00;;;;5034664;28;20401;-64
2023/12/11 01:15:05;;;;;;;3.20;1.00;;;;;11.20;97423.00;;;;5034315;28;20092;-62
2023/12/11 01:17:32;;;;;;;2.85;1.08;;;;;11.20;97423.00;;;;5034969;28;20120;-65
2023/12/11 01:20:06;;;;;;;;;;;;;11.20;97423.00;;;;5034630;28;20394;-64
2023/12/11 01:22:33;;;;;;;4.85;1.05;;;;;11.10;97417.00;;;;5033831;28;19921;-63
2023/12/11 01:25:02;;;;;;;1.27;1.00;;;;;11.10;97421.00;;;;5032078;28;20110;-64
2023/12/11 01:27:29;;;;;;;2.15;0.80;;;;;11.10;97422.00;;;;5033982;28;20041;-64
2023/12/11 01:29:56;;;;;;;2.95;1.08;;;;;11.10;97421.00;;;;5033949;28;20045;-63
2023/12/11 01:32:23;;;;;;;4.68;1.45;;;;;11.20;97424.00;;;;5033935;28;20049;-65
2023/12/11 01:34:50;;;;;;;3.58;1.42;;;;;11.20;97421.00;;;;5032007;28;20128;-64
2023/12/11 01:37:17;;;;;;;3.13;1.33;;;;;11.30;97419.00;;;;5033624;28;20494;-65
2023/12/11 01:39:44;;;;;;;1.52;1.00;;;;;11.30;97431.00;;;;5033665;28;20095;-65
2023/12/11 01:42:11;;;;;;;3.38;1.20;;;;;11.30;97413.00;;;;5033696;28;20041;-65
2023/12/11 01:44:37;;;;;;;2.30;1.20;;;;;11.30;97415.00;;;;5033022;28;20041;-65
2023/12/11 01:47:05;;;;;;;4.20;1.83;;;;;11.30;97425.00;;;;5033427;28;20410;-64
2023/12/11 01:49:33;;;;;;;3.42;1.30;;;;;11.30;97428.00;;;;5033565;28;20441;-64
2023/12/11 01:51:59;;;;;;;4.80;1.45;;;;;11.30;97420.00;;;;5033469;28;20042;-65
2023/12/11 01:54:26;;;;;;;2.45;1.50;;;;;11.20;97418.00;;;;5032787;28;20041;-65
2023/12/11 01:56:53;;;;;;;3.65;1.20;;;;;11.20;97425.00;;;;5033330;28;20045;-65
2023/12/11 01:59:20;;;;;;;4.30;1.15;;;;;11.10;97415.00;;;;5033317;28;20123;-65
2023/12/11 02:01:48;;;;;;;2.75;1.10;;;;;11.10;97421.00;;;;5033315;28;20413;-65
2023/12/11 02:04:15;;;;;;;5.18;1.40;;;;;11.00;97424.00;;;;5032569;28;20045;-65
2023/12/11 02:06:42;;;;;;;1.95;1.15;;;;;11.00;97411.00;;;;5033174;28;20124;-64
2023/12/11 02:09:12;;;;;;;2.85;1.20;;;;;11.00;97428.00;;;;5033220;28;20041;-65
2023/12/11 02:11:38;;;;;;;4.57;1.10;;;;;11.00;97418.00;;;;5031763;28;20088;-63
2023/12/11 02:14:05;;;;;;;3.60;1.10;;;;;10.90;97427.00;;;;5031557;28;20044;-65
2023/12/11 02:16:31;;;;;;;2.38;0.93;;;;;10.90;97429.00;;;;5032890;28;20041;-65
2023/12/11 02:18:58;;;;;;;6.90;1.67;;;;;10.90;97427.00;;;;5032936;28;20414;-65
2023/12/11 02:21:25;;;;;;;2.58;1.20;;;;;10.90;97440.00;;;;5032848;28;20087;-65
2023/12/11 02:24:16;;;;;;;5.30;1.05;;;;;10.90;97443.00;;;;5030930;28;20103;-65
2023/12/11 02:26:43;;;;;;;4.18;1.20;;;;;10.90;97450.00;;;;5032816;28;20056;-63
2023/12/11 02:29:09;;;;;;;5.85;1.38;;;;;11.00;97445.00;;;;5032688;28;20076;-65
2023/12/11 02:31:36;;;;;;;2.15;1.13;;;;;11.00;97441.00;;;;5032759;28;20129;-65
2023/12/11 02:34:03;;;;;;;4.72;1.30;;;;;11.10;97441.00;;;;5032004;28;20041;-65
2023/12/11 02:36:30;;;;;;;3.53;1.13;;;;;11.10;97435.00;;;;5032599;28;20045;-65
2023/12/11 02:38:57;;;;;;;5.80;1.50;;;;;11.10;97440.00;;;;5032688;28;20076;-65
2023/12/11 02:41:24;;;;;;;5.75;1.40;;;;;11.10;97439.00;;;;5032540;28;20433;-65
2023/12/11 02:43:51;;;;;;;6.28;1.60;;;;;11.20;97436.00;;;;5031801;28;20457;-63
2023/12/11 02:46:17;;;;;;;4.53;1.30;;;;;11.20;97435.00;;;;5032361;28;20409;-64
2023/12/11 02:48:44;;;;;;;4.03;1.27;;;;;11.20;97443.00;;;;5032573;28;20491;-65
2023/12/11 02:51:11;;;;;;;6.50;1.42;;;;;11.20;97427.00;;;;5032464;28;20053;-65
2023/12/11 02:53:37;;;;;;;10.73;1.98;;;;;11.20;97430.00;;;;5031658;28;20041;-65
2023/12/11 02:56:04;;;;;;;7.30;2.08;;;;;11.30;97442.00;;;;5032143;28;20057;-64
2023/12/11 02:58:31;;;;;;;5.22;1.50;;;;;11.30;97443.00;;;;5032289;28;20053;-65
2023/12/11 03:00:59;;;;;;;5.97;1.70;;;;;11.30;97440.00;;;;5032280;28;20065;-65
2023/12/11 03:03:25;;;;;;;6.10;1.50;;;;;11.30;97433.00;;;;5030284;28;20041;-65
2023/12/11 03:05:52;;;;;;;3.10;1.10;;;;;11.40;97425.00;;;;5032189;28;20077;-65
2023/12/11 03:08:19;;;;;;;5.72;1.50;;;;;11.40;97419.00;;;;5032036;28;20045;-65
2023/12/11 03:10:45;;;;;;;4.63;1.52;;;;;11.40;97412.00;;;;5032128;28;20048;-65
2023/12/11 03:13:15;;;;;;;7.57;1.40;;;;;11.30;97402.00;;;;5030813;28;20056;-65
2023/12/11 03:15:42;;;;;;;8.60;1.85;;;;;11.30;97400.00;;;;5030213;28;20056;-64
2023/12/11 03:18:10;;;;;;;6.78;1.52;;;;;11.30;97405.00;;;;5031899;28;20050;-65
2023/12/11 03:20:36;;;;;;;5.82;1.73;;;;;11.30;97405.00;;;;5032138;28;20455;-65
2023/12/11 03:23:03;;;;;;;3.03;1.00;;;;;11.30;97395.00;;;;5031830;28;20046;-65
2023/12/11 03:25:29;;;;;;;3.00;1.33;;;;;11.30;97393.00;;;;5030760;28;20041;-65
2023/12/11 03:27:56;;;;;;;6.30;1.42;;;;;11.30;97384.00;;;;5031935;28;20120;-65
2023/12/11 03:30:23;;;;;;;5.15;1.98;;;;;11.40;97378.00;;;;5030883;28;20518;-64
2023/12/11 03:32:49;;;;;;;3.45;1.52;;;;;11.40;97377.00;;;;5031720;28;20473;-65
2023/12/11 03:35:16;;;;;;;5.40;1.52;;;;;11.40;97371.00;;;;5031211;28;20410;-65
2023/12/11 03:37:42;;;;;;;4.65;1.60;;;;;11.40;97361.00;;;;5031621;28;20833;-65
2023/12/11 03:40:10;;;;;;;4.57;1.50;;;;;11.40;97365.00;;;;5030451;28;20046;-64
2023/12/11 03:42:36;;;;;;;6.55;1.75;;;;;11.40;97363.00;;;;5031849;28;20052;-65
2023/12/11 03:45:03;;;;;;;2.42;1.40;;;;;11.40;97361.00;;;;5031165;28;20038;-64
2023/12/11 03:47:30;;;;;;;3.22;1.15;;;;;11.40;97368.00;;;;5031870;28;20118;-65
2023/12/11 03:49:57;;;;;;;7.30;1.60;;;;;11.40;97369.00;;;;5031727;28;20093;-65
2023/12/11 03:52:24;;;;;;;3.80;1.65;;;;;11.40;97374.00;;;;5031535;28;20383;-65
2023/12/11 03:54:50;;;;;;;2.63;1.65;;;;;11.40;97385.00;;;;5029799;28;20045;-65
2023/12/11 03:57:17;;;;;;;3.80;1.60;;;;;11.40;97382.00;;;;5031630;28;20065;-65
2023/12/11 03:59:43;;;;;;;3.55;1.48;;;;;11.50;97388.00;;;;5031710;28;20065;-63
2023/12/11 04:02:10;;;;;;;4.15;1.67;;;;;11.50;97401.00;;;;5031711;28;20116;-65
2023/12/11 04:04:37;;;;;;;4.68;1.55;;;;;11.40;97384.00;;;;5030982;28;20120;-65
2023/12/11 04:07:03;;;;;;;3.72;1.73;;;;;11.40;97394.00;;;;5031426;28;20175;-64
2023/12/11 04:09:30;;;;;;;4.30;1.80;;;;;11.40;97387.00;;;;5031439;28;20487;-65
2023/12/11 04:11:57;;;;;;;4.00;1.75;;;;;11.40;97385.00;;;;5031530;28;20498;-65
2023/12/11 04:14:23;;;;;;;6.95;1.88;;;;;11.50;97395.00;;;;5030857;28;20036;-65
2023/12/11 04:16:50;;;;;;;2.22;1.20;;;;;11.50;97389.00;;;;5031315;28;20500;-64
2023/12/11 04:19:16;;;;;;;2.05;1.30;;;;;11.50;97381.00;;;;5031511;28;20124;-65
2023/12/11 04:21:43;;;;;;;4.40;1.40;;;;;11.50;97392.00;;;;5031233;28;20107;-65
2023/12/11 04:24:10;;;;;;;4.30;1.52;;;;;11.50;97388.00;;;;5030611;28;20510;-64
2023/12/11 04:26:40;;;;;;;4.30;2.05;;;;;11.50;97395.00;;;;5031321;28;20049;-65
2023/12/11 04:29:07;;;;;;;2.85;1.25;;;;;11.60;97388.00;;;;5030109;28;20144;-65
2023/12/11 04:31:33;;;;;;;2.58;1.30;;;;;11.60;97401.00;;;;5031383;28;20045;-65
2023/12/11 04:34:00;;;;;;;1.90;1.00;;;;;11.60;97396.00;;;;5030619;28;20045;-66
2023/12/11 04:36:27;;;;;;;1.80;1.20;;;;;11.60;97389.00;;;;5031326;28;20060;-65
2023/12/11 04:38:54;;;;;;;3.58;1.77;;;;;11.60;97390.00;;;;5033497;28;20050;-65
2023/12/11 04:41:20;;;;;;;4.25;1.42;;;;;11.70;97377.00;;;;5033720;28;20107;-64
2023/12/11 04:43:47;;;;;;;5.50;1.45;;;;;11.70;97385.00;;;;5032854;28;20494;-65
2023/12/11 04:46:13;;;;;;;4.60;1.65;;;;;11.70;97370.00;;;;5034665;28;20045;-65
2023/12/11 04:48:40;;;;;;;2.20;1.27;;;;;11.70;97373.00;;;;5034830;28;20076;-65
2023/12/11 04:51:07;;;;;;;2.53;1.20;;;;;11.70;97372.00;;;;5034692;28;20037;-65
2023/12/11 04:53:33;;;;;;;2.70;1.20;;;;;11.70;97359.00;;;;5032682;28;20043;-65
2023/12/11 04:56:05;;;;;;;1.92;0.98;;;;;11.80;97354.00;;;;5034644;28;20047;-65
2023/12/11 04:58:32;;;;;;;6.28;1.23;;;;;11.70;97364.00;;;;5034557;28;20128;-65
2023/12/11 05:00:58;;;;;;;2.60;1.23;;;;;11.80;97378.00;;;;5034397;28;20129;-66
2023/12/11 05:03:25;;;;;;;3.42;1.10;;;;;11.80;97361.00;;;;5033788;28;20502;-64
2023/12/11 05:05:51;;;;;;;2.60;1.25;;;;;11.80;97352.00;;;;5033957;28;20088;-65
2023/12/11 05:08:18;;;;;;;3.25;1.25;;;;;11.80;97355.00;;;;5034408;28;20540;-65
2023/12/11 05:10:45;;;;;;;3.65;1.30;;;;;11.80;97337.00;;;;5034301;28;20120;-65
2023/12/11 05:13:11;;;;;;;3.80;1.40;;;;;11.70;97350.00;;;;5034260;28;20128;-65
2023/12/11 05:15:38;;;;;;;4.22;1.00;;;;;11.70;97330.00;;;;5032428;28;20038;-65
2023/12/11 05:18:05;;;;;;;6.15;1.52;;;;;11.70;97322.00;;;;5034135;28;20048;-65
2023/12/11 05:20:31;;;;;;;6.03;1.15;;;;;11.80;97336.00;;;;5032882;28;20056;-65
2023/12/11 05:22:58;;;;;;;6.95;1.30;;;;;11.80;97332.00;;;;5032811;28;20052;-64
2023/12/11 05:25:24;;;;;;;3.17;1.33;;;;;11.80;97342.00;;;;5033265;28;20044;-65
2023/12/11 05:27:51;;;;;;;4.72;1.30;;;;;11.70;97333.00;;;;5034029;28;20561;-65
2023/12/11 05:30:17;;;;;;;5.05;1.33;;;;;11.80;97354.00;;;;5033860;28;20132;-65
2023/12/11 05:32:47;;;;;;;4.75;1.38;;;;;11.70;97338.00;;;;5032951;28;20099;-65
2023/12/11 05:35:14;;;;;;;3.90;1.23;;;;;11.80;97347.00;;;;5033230;28;20060;-64
2023/12/11 05:37:41;;;;;;;4.65;1.60;;;;;11.80;97346.00;;;;5033680;28;20046;-65
2023/12/11 05:40:08;;;;;;;7.00;1.65;;;;;11.70;97329.00;;;;5034022;28;20042;-65
2023/12/11 05:42:49;;;;;;;4.10;1.30;;;;;11.70;97343.00;;;;5032455;28;20060;-65
2023/12/11 05:45:16;;;;;;;5.57;1.48;;;;;11.70;97345.00;;;;5033075;28;20044;-65
2023/12/11 05:47:43;;;;;;;3.88;1.38;;;;;11.70;97356.00;;;;5031975;28;20046;-65
2023/12/11 05:50:09;;;;;;;7.25;2.25;;;;;11.80;97354.00;;;;5033712;28;20095;-65
2023/12/11 05:52:36;;;;;;;5.57;1.20;;;;;11.80;97353.00;;;;5033799;28;20038;-60
2023/12/11 05:55:03;;;;;;;8.80;3.60;;;;;11.80;97354.00;;;;5031739;28;20069;-65
2023/12/11 05:57:29;;;;;;;5.20;1.35;;;;;11.90;97338.00;;;;5033434;28;20049;-62
2023/12/11 05:59:56;;;;;;;7.82;1.77;;;;;11.90;97340.00;;;;5033497;28;20053;-65
2023/12/11 06:02:24;;;;;;;4.75;1.38;;;;;11.90;97333.00;;;;5032174;28;20045;-64
2023/12/11 06:04:51;;;;;;;3.78;1.48;;;;;11.90;97321.00;;;;5032585;28;20103;-65
2023/12/11 06:07:18;;;;;;;3.78;1.25;;;;;11.90;97333.00;;;;5033203;28;20073;-65
2023/12/11 06:09:44;;;;;;;3.58;1.27;;;;;11.90;97338.00;;;;5033274;28;20050;-65
2023/12/11 06:12:11;;;;;;;5.43;1.50;;;;;12.00;97340.00;;;;5033199;28;20049;-63
2023/12/11 06:14:39;;;;;;;3.38;1.20;;;;;12.00;97352.00;;;;5032329;28;20087;-63
2023/12/11 06:17:06;;;;;;;6.35;1.45;;;;;12.00;97353.00;;;;5032926;28;20433;-64
2023/12/11 06:19:32;;;;;;;4.70;1.33;;;;;11.90;97349.00;;;;5033170;28;20119;-65
2023/12/11 06:21:59;;;;;;;5.57;1.38;;;;;11.90;97362.00;;;;5032829;28;20049;-64
2023/12/11 06:24:26;;;;;;;2.40;1.20;;;;;11.90;97348.00;;;;5032136;28;20069;-64
2023/12/11 06:26:53;;;;;;;4.78;1.50;;;;;11.90;97341.00;;;;5032751;28;20116;-65
2023/12/11 06:29:20;;;;;;;2.95;1.50;;;;;11.90;97336.00;;;;5032800;28;20405;-64
2023/12/11 06:31:46;;;;;;;5.95;1.50;;;;;11.80;97339.00;;;;5032810;28;20046;-65
2023/12/11 06:34:13;;;;;;;7.38;1.75;;;;;11.80;97338.00;;;;5032111;28;20045;-65
2023/12/11 06:36:39;;;;;;;6.35;2.08;;;;;11.80;97327.00;;;;5032628;28;20195;-65
2023/12/11 06:39:06;;;;;;;3.53;1.23;;;;;11.80;97322.00;;;;5032674;28;20060;-64
2023/12/11 06:41:36;;;;;;;5.95;1.50;;;;;11.70;97321.00;;;;5031763;28;20414;-65
2023/12/11 06:44:03;;;;;;;5.45;1.40;;;;;11.70;97309.00;;;;5032214;28;20045;-64
2023/12/11 06:46:29;;;;;;;6.07;1.58;;;;;11.70;97304.00;;;;5032573;28;20457;-65
2023/12/11 06:48:57;;;;;;;10.13;2.05;;;;;11.70;97309.00;;;;5032688;28;20088;-64
2023/12/11 06:51:24;;;;;;;6.43;1.40;;;;;11.70;97318.00;;;;5032510;28;20410;-65
2023/12/11 06:53:58;;;;;;;3.42;1.70;;;;;11.70;97302.00;;;;5031652;28;20068;-64
2023/12/11 06:56:26;;;;;;;6.72;2.00;;;;;11.70;97311.00;;;;5031212;28;20045;-63
2023/12/11 06:58:53;;;;;;;4.38;1.80;;;;;11.70;97299.00;;;;5032367;28;20540;-64
2023/12/11 07:01:20;;;;;;;5.03;1.83;;;;;11.70;97309.00;;;;5031979;28;20052;-65
2023/12/11 07:03:50;;;;;;;4.72;1.50;;;;;11.60;97308.00;;;;5030449;28;20050;-64
2023/12/11 07:06:17;;;;;;;6.10;1.50;;;;;11.60;97300.00;;;;5032284;28;20046;-64
2023/12/11 07:08:44;;;;;;;7.90;2.03;;;;;11.50;97300.00;;;;5032083;28;20087;-65
2023/12/11 07:11:11;;;;;;;7.28;1.70;;;;;11.50;97306.00;;;;5032562;28;20623;-64
2023/12/11 07:13:40;;;;;;;7.93;2.22;;;;;11.50;97301.00;;;;5030403;28;20053;-64
2023/12/11 07:16:07;;;;;;;8.95;1.77;;;;;11.50;97304.00;;;;5032127;28;20163;-64
2023/12/11 07:18:34;;;;;;;5.68;1.95;;;;;11.50;97305.00;;;;5032006;28;20053;-64
2023/12/11 07:21:00;;;;;;;6.25;1.85;;;;;11.50;97295.00;;;;5032082;28;20506;-64
2023/12/11 07:23:27;;;;;;;8.70;1.80;;;;;11.50;97307.00;;;;5031536;28;20656;-64
2023/12/11 07:25:54;;;;;;;6.35;1.80;;;;;11.50;97296.00;;;;5031723;28;20560;-64
2023/12/11 07:28:20;;;;;;;8.18;1.60;;;;;11.50;97286.00;;;;5032066;28;20041;-64
2023/12/11 07:30:47;;;;;;;9.70;2.10;;;;;11.50;97297.00;;;;5032150;28;20045;-64
2023/12/11 07:33:13;;;;;;;8.23;1.83;;;;;11.40;97281.00;;;;5031866;28;20466;-63
2023/12/11 07:35:40;;;;;;;6.47;1.70;;;;;11.40;97297.00;;;;5031367;28;20045;-64
2023/12/11 07:38:07;;;;;;;6.43;1.65;;;;;11.40;97303.00;;;;5032130;28;20423;-64
2023/12/11 07:40:33;;;;;;;6.70;1.75;;;;;11.40;97301.00;;;;5032076;28;20080;-64
2023/12/11 07:43:00;;;;;;;7.15;2.00;;;;;11.40;97308.00;;;;5031821;28;20045;-62
2023/12/11 07:45:28;;;;;;;10.23;2.47;;;;;11.40;97308.00;;;;5031175;28;20045;-64
2023/12/11 07:47:54;;;;;;;7.35;1.63;;;;;11.40;97313.00;;;;5031855;28;20175;-64
2023/12/11 07:50:21;;;;;;;12.20;2.15;;;;;11.30;97319.00;;;;5032136;28;20091;-64
2023/12/11 07:52:48;;;;;;;8.75;1.70;;;;;11.30;97312.00;;;;5031739;28;20069;-64
2023/12/11 07:55:14;;;;;;;5.05;1.77;;;;;11.30;97316.00;;;;5031157;28;20044;-64
2023/12/11 07:57:41;;;;;;;9.43;1.98;;;;;11.30;97327.00;;;;5031530;28;20103;-64
2023/12/11 08:00:08;;;;;;;8.13;3.28;;;;;11.30;97327.00;;;;5030417;28;20556;-64
2023/12/11 08:02:35;;;;;;;7.28;2.38;;;;;11.40;97327.00;;;;5031449;28;20080;-64
2023/12/11 08:05:02;;;;;;;10.27;1.80;;;;;11.40;97333.00;;;;5030730;28;20048;-64
2023/12/11 08:07:30;;;;;;;6.93;1.92;;;;;11.40;97333.00;;;;5031501;28;20045;-64
2023/12/11 08:09:57;;;;;;;7.13;2.20;;;;;11.50;97338.00;;;;5031515;28;20117;-63
2023/12/11 08:12:25;;;;;;;8.13;2.63;;;;;11.50;97342.00;;;;5033112;28;20053;-64
2023/12/11 08:14:52;;;;;;;9.38;2.55;;;;;11.60;97339.00;;;;5034592;28;20395;-64
2023/12/11 08:17:18;;;;;;;7.38;2.20;;;;;11.70;97342.00;;;;5035233;28;20426;-63
2023/12/11 08:19:45;;;;;;;6.03;2.20;;;;;11.70;97339.00;;;;5035264;28;20091;-64
2023/12/11 08:22:13;;;;;;;11.13;2.30;;;;;11.80;97334.00;;;;5035215;28;20565;-64
2023/12/11 08:24:40;;;;;;;13.88;2.30;;;;;11.80;97317.00;;;;5034546;28;20132;-64
2023/12/11 08:27:07;;;;;;;7.55;2.33;;;;;11.90;97324.00;;;;5033884;28;20056;-64
2023/12/11 08:29:35;;;;;;;11.25;2.50;;;;;12.00;97323.00;;;;5035023;28;20158;-64
2023/12/11 08:32:04;;;;;;;12.38;2.67;;;;;12.00;97325.00;;;;5035052;28;20084;-64
2023/12/11 08:34:35;;;;;;;8.30;1.95;;;;;12.10;97328.00;;;;5034504;28;20057;-63
2023/12/11 08:37:02;;;;;;;7.03;1.83;;;;;12.10;97318.00;;;;5034998;28;20045;-64
2023/12/11 08:39:28;;;;;;;7.28;1.90;;;;;12.10;97329.00;;;;5034925;28;20474;-64
2023/12/11 08:41:55;;;;;;;8.30;2.28;;;;;12.10;97332.00;;;;5034945;28;20053;-64
2023/12/11 08:44:22;;;;;;;11.15;2.75;;;;;12.20;97337.00;;;;5034332;28;20045;-64
2023/12/11 08:46:48;;;;;;;8.93;2.30;;;;;12.20;97335.00;;;;5033508;28;20053;-64
2023/12/11 08:49:15;;;;;;;8.45;2.60;;;;;12.20;97332.00;;;;5035153;28;20120;-64
2023/12/11 08:51:42;;;;;;;10.38;2.47;;;;;12.30;97348.00;;;;5035496;28;20046;-62
2023/12/11 08:54:08;;;;;;;10.82;2.70;;;;;12.30;97331.00;;;;5034059;28;20045;-64
2023/12/11 08:56:35;;;;;;;10.27;2.00;;;;;12.40;97338.00;;;;5033508;28;20144;-64
2023/12/11 08:59:02;;;;;;;11.45;2.38;;;;;12.50;97337.00;;;;5034962;28;20049;-62
2023/12/11 09:01:30;;;;;;;7.32;2.20;;;;;12.50;97339.00;;;;5033544;28;20076;-64
2023/12/11 09:03:57;;;;;;;9.23;2.95;;;;;12.60;97348.00;;;;5032955;28;20045;-65
2023/12/11 09:06:24;;;;;;;11.63;2.83;;;;;12.70;97354.00;;;;5034536;28;20571;-63
2023/12/11 09:08:51;;;;;;;14.50;3.92;;;;;12.60;97350.00;;;;5033352;28;20107;-62
2023/12/11 09:11:17;;;;;;;9.05;3.13;;;;;12.50;97349.00;;;;5034545;28;20128;-60
2023/12/11 09:13:44;;;;;;;9.93;2.63;;;;;12.40;97352.00;;;;5034010;28;20498;-62
2023/12/11 09:16:10;;;;;;;12.50;3.28;;;;;12.30;97372.00;;;;5034210;28;20034;-63
2023/12/11 09:18:37;;;;;;;8.93;2.90;;;;;12.30;97363.00;;;;5035136;28;20124;-62
2023/12/11 09:21:04;;;;;;;9.38;2.80;;;;;12.30;97365.00;;;;5035117;28;20041;-62
2023/12/11 09:23:31;;;;;;;11.38;2.90;;;;;12.30;97370.00;;;;5033720;28;20088;-62
2023/12/11 09:25:58;;;;;;;13.52;3.78;;;;;12.20;97364.00;;;;5034632;28;20038;-61
2023/12/11 09:28:24;;;;;;;14.20;3.50;;;;;12.20;97362.00;;;;5034719;28;20045;-61
2023/12/11 09:30:56;;;;;;;12.98;2.85;;;;;12.20;97369.00;;;;5034798;28;20471;-62
2023/12/11 09:33:23;;;;;;;17.60;4.18;;;;;12.20;97373.00;;;;5034124;28;20509;-62
2023/12/11 09:35:50;;;;;;;15.40;3.75;;;;;12.20;97377.00;;;;5034532;28;20045;-62
2023/12/11 09:38:17;;;;;;;16.63;4.10;;;;;12.30;97368.00;;;;5034206;28;20068;-64
2023/12/11 09:40:43;;;;;;;14.23;4.00;;;;;12.30;97360.00;;;;5034331;28;20045;-63
2023/12/11 09:43:10;;;;;;;14.85;3.80;;;;;12.40;97363.00;;;;5032898;28;20045;-62
2023/12/11 09:45:38;;;;;;;13.80;4.00;;;;;12.60;97365.00;;;;5032378;28;20046;-63
2023/12/11 09:48:05;;;;;;;13.88;4.35;;;;;12.80;97371.00;;;;5032616;28;20053;-62
2023/12/11 09:50:40;;;;;;;9.13;2.63;;;;;12.90;97373.00;;;;5034163;28;20057;-63
2023/12/11 09:53:08;;;;;;;12.32;2.80;;;;;13.00;97364.00;;;;5032584;28;20059;-62
2023/12/11 09:55:35;;;;;;;8.57;2.53;;;;;13.00;97368.00;;;;5033144;28;20091;-62
2023/12/11 09:58:03;;;;;;;16.52;2.65;;;;;13.00;97367.00;;;;5032476;28;20041;-64
2023/12/11 10:00:30;;;;;;;12.02;2.53;;;;;13.00;97368.00;;;;5032384;28;20054;-64
2023/12/11 10:03:00;;;;;;;13.20;2.85;;;;;12.90;97382.00;;;;5032346;28;20053;-65
2023/12/11 10:05:27;;;;;;;16.15;3.17;;;;;13.00;97379.00;;;;5032395;28;20379;-65
2023/12/11 10:07:54;;;;;;;16.08;2.65;;;;;13.00;97379.00;;;;5033379;28;20132;-64
2023/12/11 10:10:26;;;;;;;10.07;2.50;;;;;12.90;97381.00;;;;5032162;28;20164;-65
2023/12/11 10:12:54;;;;;;;14.73;3.50;;;;;12.90;97377.00;;;;5033285;28;20046;-65
2023/12/11 10:15:29;;;;;;;12.77;2.95;;;;;13.00;97389.00;;;;5032636;28;20041;-65
2023/12/11 10:18:09;;;;;;;10.30;2.92;;;;;13.00;97393.00;;;;5031944;28;20053;-65
2023/12/11 10:20:38;;;;;;;12.05;3.17;;;;;12.90;97386.00;;;;5031893;28;20099;-65
2023/12/11 10:23:17;;;;;;;13.15;2.80;;;;;13.00;97384.00;;;;5033124;28;20056;-65
2023/12/11 10:25:47;;;;;;;13.05;3.33;;;;;13.00;97389.00;;;;5032577;28;20529;-65
2023/12/11 10:28:20;;;;;;;14.48;3.15;;;;;12.90;97388.00;;;;5033014;28;20056;-65
2023/12/11 10:30:50;;;;;;;13.10;2.88;;;;;12.90;97376.00;;;;5033087;28;20151;-65
2023/12/11 10:33:19;;;;;;;16.55;3.42;;;;;12.90;97384.00;;;;5033110;28;20076;-65
2023/12/11 10:35:46;;;;;;;11.80;3.10;;;;;13.00;97382.00;;;;5031485;28;20095;-67
2023/12/11 10:38:24;;;;;;;19.65;3.33;;;;;13.00;97380.00;;;;5032977;28;20091;-65
2023/12/11 10:40:52;;;;;;;15.20;3.35;;;;;13.00;97392.00;;;;5032881;28;20100;-65
2023/12/11 10:43:18;;;;;;;16.42;4.10;;;;;13.00;97403.00;;;;5032653;28;20045;-65
2023/12/11 10:45:45;;;;;;;11.13;3.20;;;;;13.00;97386.00;;;;5030933;28;20136;-65
2023/12/11 10:48:17;;;;;;;11.25;3.17;;;;;13.00;97383.00;;;;5032687;28;20045;-64
2023/12/11 10:50:45;;;;;;;14.82;3.63;;;;;13.00;97392.00;;;;5032605;28;20523;-65
2023/12/11 10:53:12;;;;;;;13.70;3.45;;;;;13.00;97394.00;;;;5032580;28;20043;-65
2023/12/11 10:55:39;;;;;;;13.23;3.58;;;;;13.00;97382.00;;;;5031887;28;20124;-65
2023/12/11 10:58:09;;;;;;;17.85;3.88;;;;;13.10;97399.00;;;;5032649;28;20072;-66
2023/12/11 11:00:38;;;;;;;13.23;4.00;;;;;13.20;97411.00;;;;5032687;28;20045;-65
2023/12/11 11:03:08;;;;;;;12.13;3.47;;;;;13.30;97393.00;;;;5032526;28;20045;-65
2023/12/11 11:05:35;;;;;;;17.55;6.95;;;;;13.30;97406.00;;;;5031781;28;20046;-65
2023/12/11 11:08:21;;;;;;;17.45;3.55;;;;;13.40;97402.00;;;;5032167;28;20096;-64
2023/12/11 11:10:58;;;;;;;13.18;2.92;;;;;13.30;97402.00;;;;5032212;28;20553;-65
2023/12/11 11:13:31;;;;;;;12.85;3.47;;;;;13.40;97407.00;;;;5031510;28;20045;-65
2023/12/11 11:15:58;;;;;;;;;;;;;13.50;97405.00;;;;5032603;28;20037;-65
2023/12/11 11:18:24;;;;;;;7.15;2.28;;;;;13.40;97415.00;;;;5032093;28;19928;-65
2023/12/11 11:21:11;;;;;;;12.45;3.53;;;;;13.50;97423.00;;;;5032059;28;20099;-65
2023/12/11 11:23:43;;;;;;;13.57;3.08;;;;;13.50;97422.00;;;;5031458;28;20065;-64
2023/12/11 11:26:33;;;;;;;11.07;2.90;;;;;13.50;97427.00;;;;5032007;28;20044;-65
2023/12/11 11:29:01;;;;;;;16.13;2.92;;;;;13.50;97426.00;;;;5030862;28;20053;-65
2023/12/11 11:31:48;;;;;;;12.15;3.63;;;;;13.40;97432.00;;;;5031912;28;20406;-65
2023/12/11 11:34:15;;;;;;;14.82;3.28;;;;;13.30;97435.00;;;;5031403;28;20049;-65
2023/12/11 11:36:46;;;;;;;13.75;2.85;;;;;13.30;97438.00;;;;5031800;28;20056;-65
2023/12/11 11:39:14;;;;;;;12.40;2.58;;;;;13.20;97438.00;;;;5031762;28;20056;-65
2023/12/11 11:41:43;;;;;;;12.07;2.78;;;;;13.20;97440.00;;;;5031901;28;20561;-64
2023/12/11 11:44:10;;;;;;;12.60;3.38;;;;;13.30;97445.00;;;;5031270;28;20089;-65
2023/12/11 11:46:57;;;;;;;10.57;2.95;;;;;13.20;97442.00;;;;5033759;28;20042;-64
2023/12/11 11:49:31;;;;;;;10.95;3.10;;;;;13.10;97447.00;;;;5042592;28;20486;-65
2023/12/11 11:51:58;;;;;;;15.10;3.70;;;;;13.10;97438.00;;;;5036830;28;20106;-65
2023/12/11 11:54:29;;;;;;;11.73;3.63;;;;;13.10;97438.00;;;;5035295;28;20048;-65
2023/12/11 11:56:56;;;;;;;11.65;2.97;;;;;13.20;97451.00;;;;5035654;28;20041;-65
2023/12/11 11:59:22;;;;;;;8.55;2.50;;;;;13.20;97447.00;;;;5035683;28;20042;-65
2023/12/11 12:01:51;;;;;;;11.32;2.75;;;;;13.20;97452.00;;;;5035611;28;20080;-65
2023/12/11 12:04:34;;;;;;;15.77;2.72;;;;;13.20;97458.00;;;;5035038;28;20053;-65
2023/12/11 12:07:02;;;;;;;9.52;2.90;;;;;13.10;97456.00;;;;5035473;28;20060;-66
2023/12/11 12:09:30;;;;;;;12.57;3.53;;;;;13.20;97461.00;;;;5035530;28;20516;-64
2023/12/11 12:11:58;;;;;;;17.77;4.13;;;;;13.10;97457.00;;;;5035535;28;20083;-65
2023/12/11 12:14:27;;;;;;;15.40;4.70;;;;;13.10;97465.00;;;;5034943;28;20056;-65
2023/12/11 12:16:55;;;;;;;17.50;4.85;;;;;13.10;97467.00;;;;5034446;28;20049;-63
2023/12/11 12:19:32;;;;;;;19.45;5.55;;;;;13.10;97465.00;;;;5035409;28;20128;-61